Time;durP1;ratioP1;P1;durP2;ratioP2;P2;SDS_P1;SDS_P2;PMS_P1;PMS_P2;Temp;Humidity;BMP_temperature;BMP_pressure;BME280_temperature;BME280_humidity;BME280_pressure;Samples;Min_cycle;Max_cycle;Signal;HPM_P1;HPM_P2
2021/10/23 00:01:25;;;;;;;4.73;0.80;;;6.80;99.90;;;;;;5100417;28;20193;-47
2021/10/23 00:03:52;;;;;;;8.17;1.30;;;6.70;99.90;;;;;;5101935;28;20214;-48
2021/10/23 00:06:19;;;;;;;8.27;1.07;;;6.70;99.90;;;;;;5096193;28;20243;-44
2021/10/23 00:08:45;;;;;;;8.63;1.20;;;6.70;99.90;;;;;;5077256;28;20186;-49
2021/10/23 00:11:13;;;;;;;3.63;0.90;;;6.70;99.90;;;;;;5081252;28;20651;-48
2021/10/23 00:13:40;;;;;;;7.80;1.70;;;6.70;99.90;;;;;;5086093;28;20225;-46
2021/10/23 00:16:07;;;;;;;4.67;0.93;;;6.60;99.90;;;;;;5102839;28;20201;-45
2021/10/23 00:18:34;;;;;;;6.70;1.37;;;6.60;99.90;;;;;;5098790;28;20204;-44
2021/10/23 00:21:00;;;;;;;9.03;1.50;;;6.60;99.90;;;;;;5103107;28;20201;-49
2021/10/23 00:23:27;;;;;;;15.57;1.40;;;6.60;99.90;;;;;;5076528;28;20214;-46
2021/10/23 00:25:54;;;;;;;3.33;0.90;;;6.60;99.90;;;;;;5082264;28;20198;-47
2021/10/23 00:28:22;;;;;;;8.20;1.47;;;6.50;99.90;;;;;;5089599;28;20201;-46
2021/10/23 00:30:49;;;;;;;7.43;1.50;;;6.60;99.90;;;;;;5101291;28;20197;-49
2021/10/23 00:33:16;;;;;;;6.13;1.40;;;6.60;99.90;;;;;;5101784;28;20221;-47
2021/10/23 00:35:43;;;;;;;3.17;1.30;;;6.60;99.90;;;;;;5099719;28;20901;-50
2021/10/23 00:38:09;;;;;;;5.73;1.20;;;6.60;99.90;;;;;;5102855;28;20666;-47
2021/10/23 00:40:36;;;;;;;6.17;1.20;;;6.60;99.90;;;;;;5064209;28;20202;-47
2021/10/23 00:43:03;;;;;;;8.27;1.30;;;6.60;99.90;;;;;;5082318;28;20224;-48
2021/10/23 00:45:31;;;;;;;3.30;1.23;;;6.60;99.90;;;;;;5102644;28;20221;-48
2021/10/23 00:47:58;;;;;;;4.67;1.13;;;6.60;99.90;;;;;;5106248;28;20221;-46
2021/10/23 00:50:27;;;;;;;9.97;1.43;;;6.60;99.90;;;;;;5103741;28;20193;-47
2021/10/23 00:52:54;;;;;;;6.93;1.70;;;6.60;99.90;;;;;;5103926;28;20699;-45
2021/10/23 00:55:21;;;;;;;4.33;1.43;;;6.60;99.90;;;;;;5074007;27;20234;-44
2021/10/23 00:57:48;;;;;;;4.57;1.27;;;6.50;99.90;;;;;;5078835;28;20216;-46
2021/10/23 01:00:15;;;;;;;5.93;1.50;;;6.50;99.90;;;;;;5105546;28;20662;-45
2021/10/23 01:02:43;;;;;;;10.23;2.37;;;6.50;99.90;;;;;;5102513;28;20220;-45
2021/10/23 01:05:10;;;;;;;3.93;1.47;;;6.50;99.90;;;;;;5082368;28;20202;-46
2021/10/23 01:07:37;;;;;;;7.47;1.50;;;6.50;99.90;;;;;;5086093;28;20561;-47
2021/10/23 01:10:06;;;;;;;5.80;1.33;;;6.50;99.90;;;;;;5068172;28;20209;-48
2021/10/23 01:12:33;;;;;;;9.43;1.77;;;6.50;99.90;;;;;;5086039;28;20217;-46
2021/10/23 01:15:00;;;;;;;4.43;1.30;;;6.50;99.90;;;;;;5078083;28;20663;-44
2021/10/23 01:17:26;;;;;;;6.27;1.57;;;6.50;99.90;;;;;;5085822;28;20204;-45
2021/10/23 01:19:55;;;;;;;7.77;1.43;;;6.60;99.90;;;;;;5084087;28;20236;-46
2021/10/23 01:22:26;;;;;;;11.03;1.70;;;6.60;99.90;;;;;;5084557;28;20186;-49
2021/10/23 01:24:53;;;;;;;3.20;1.10;;;6.50;99.90;;;;;;5070673;28;20213;-48
2021/10/23 01:27:20;;;;;;;8.80;2.00;;;6.60;99.90;;;;;;5083931;28;20213;-51
2021/10/23 01:29:47;;;;;;;3.17;1.13;;;6.50;99.90;;;;;;5078571;28;20212;-50
2021/10/23 01:32:14;;;;;;;7.43;1.20;;;6.60;99.90;;;;;;5082813;28;20190;-48
2021/10/23 01:34:41;;;;;;;6.87;1.60;;;6.50;99.90;;;;;;5085923;28;20208;-46
2021/10/23 01:37:09;;;;;;;8.17;1.00;;;6.50;99.90;;;;;;5081804;28;20190;-47
2021/10/23 01:39:36;;;;;;;6.50;1.77;;;6.50;99.90;;;;;;5085696;28;20208;-48
2021/10/23 01:42:03;;;;;;;4.07;1.17;;;6.50;99.90;;;;;;5068434;28;20205;-45
2021/10/23 01:44:33;;;;;;;5.23;1.30;;;6.50;99.90;;;;;;5079098;28;20324;-45
2021/10/23 01:47:00;;;;;;;8.47;1.90;;;6.50;99.90;;;;;;5078510;28;20220;-46
2021/10/23 01:49:26;;;;;;;7.73;1.10;;;6.50;99.90;;;;;;5085573;28;20202;-44
2021/10/23 01:51:53;;;;;;;6.43;1.10;;;6.50;99.90;;;;;;5077802;28;20205;-44
2021/10/23 01:54:21;;;;;;;8.70;1.93;;;6.50;99.90;;;;;;5099357;28;20216;-44
2021/10/23 01:56:48;;;;;;;9.83;1.50;;;6.60;99.90;;;;;;5081849;28;20679;-49
2021/10/23 01:59:14;;;;;;;7.13;1.10;;;6.60;99.90;;;;;;5076286;28;20217;-44
2021/10/23 02:01:41;;;;;;;9.57;1.80;;;6.60;99.90;;;;;;5084735;28;20212;-48
2021/10/23 02:04:08;;;;;;;7.33;1.40;;;6.60;99.90;;;;;;5081255;28;20214;-46
2021/10/23 02:06:34;;;;;;;7.30;1.30;;;6.70;99.90;;;;;;5085083;28;20221;-50
2021/10/23 02:09:01;;;;;;;9.60;1.20;;;6.70;99.90;;;;;;5081480;28;20213;-45
2021/10/23 02:11:29;;;;;;;9.40;1.40;;;6.70;99.90;;;;;;5090653;28;20280;-48
2021/10/23 02:13:56;;;;;;;7.43;1.60;;;6.70;99.90;;;;;;5067425;28;20229;-48
2021/10/23 02:16:23;;;;;;;4.93;1.63;;;6.70;99.90;;;;;;5081947;28;20201;-47
2021/10/23 02:18:49;;;;;;;8.00;1.07;;;6.70;99.90;;;;;;5083734;28;20201;-46
2021/10/23 02:21:16;;;;;;;8.50;1.77;;;6.80;99.90;;;;;;5082286;28;20201;-49
2021/10/23 02:23:43;;;;;;;7.53;1.83;;;6.80;99.90;;;;;;5077979;28;20582;-48
2021/10/23 02:26:10;;;;;;;4.67;0.90;;;6.80;99.90;;;;;;5074716;28;20445;-48
2021/10/23 02:28:38;;;;;;;7.77;1.03;;;6.80;99.90;;;;;;5083983;28;20229;-47
2021/10/23 02:31:04;;;;;;;8.53;1.60;;;6.80;99.90;;;;;;5073096;28;21027;-49
2021/10/23 02:33:31;;;;;;;7.73;1.50;;;6.80;99.90;;;;;;5103924;28;20225;-45
2021/10/23 02:35:58;;;;;;;10.17;1.53;;;6.80;99.90;;;;;;5100956;28;20205;-49
2021/10/23 02:38:25;;;;;;;5.67;1.30;;;6.80;99.90;;;;;;5103415;28;20205;-48
2021/10/23 02:40:51;;;;;;;8.23;1.40;;;6.80;99.90;;;;;;5086798;28;20186;-44
2021/10/23 02:43:18;;;;;;;9.07;1.60;;;6.80;99.90;;;;;;5078453;28;20218;-49
2021/10/23 02:45:48;;;;;;;6.30;1.17;;;6.80;99.90;;;;;;5077084;28;20209;-45
2021/10/23 02:48:15;;;;;;;7.73;1.90;;;6.80;99.90;;;;;;5101224;28;20825;-48
2021/10/23 02:50:42;;;;;;;8.07;1.20;;;6.80;99.90;;;;;;5103753;28;20203;-49
2021/10/23 02:53:09;;;;;;;6.23;1.33;;;6.80;99.90;;;;;;5080170;28;20221;-45
2021/10/23 02:55:36;;;;;;;5.40;1.30;;;6.80;99.90;;;;;;5083907;28;20204;-50
2021/10/23 02:58:03;;;;;;;9.40;1.43;;;6.80;99.90;;;;;;5080402;28;20271;-50
2021/10/23 03:00:29;;;;;;;12.13;2.07;;;6.80;99.90;;;;;;5070912;28;20697;-50
2021/10/23 03:02:58;;;;;;;6.63;1.50;;;6.90;99.90;;;;;;5074474;28;20234;-47
2021/10/23 03:05:25;;;;;;;8.17;1.60;;;6.90;99.90;;;;;;5081187;28;20198;-48
2021/10/23 03:07:51;;;;;;;11.30;1.67;;;6.90;99.90;;;;;;5101033;28;20223;-44
2021/10/23 03:10:18;;;;;;;9.53;1.77;;;7.00;99.90;;;;;;5095426;28;20897;-47
2021/10/23 03:12:44;;;;;;;7.47;1.87;;;7.00;99.90;;;;;;5092574;28;20225;-48
2021/10/23 03:15:11;;;;;;;8.50;1.40;;;7.00;99.90;;;;;;5082249;28;20214;-46
2021/10/23 03:17:38;;;;;;;7.97;1.40;;;7.10;99.90;;;;;;5077292;28;20574;-46
2021/10/23 03:20:07;;;;;;;5.50;1.20;;;7.10;99.90;;;;;;5079996;28;20189;-45
2021/10/23 03:22:34;;;;;;;6.17;1.17;;;7.20;99.90;;;;;;5083723;28;20735;-45
2021/10/23 03:25:01;;;;;;;6.40;0.83;;;7.20;99.90;;;;;;5080196;28;20217;-46
2021/10/23 03:27:27;;;;;;;6.73;1.10;;;7.20;99.90;;;;;;5083791;28;20239;-45
2021/10/23 03:29:54;;;;;;;6.43;1.13;;;7.20;99.90;;;;;;5081347;28;20201;-48
2021/10/23 03:32:22;;;;;;;8.53;1.20;;;7.20;99.90;;;;;;5066322;28;20227;-48
2021/10/23 03:34:49;;;;;;;5.43;1.10;;;7.20;99.90;;;;;;5074670;28;20206;-47
2021/10/23 03:37:17;;;;;;;11.13;1.20;;;7.20;99.90;;;;;;5081370;28;20196;-47
2021/10/23 03:39:44;;;;;;;9.23;1.10;;;7.10;99.90;;;;;;5083485;28;20241;-47
2021/10/23 03:42:11;;;;;;;2.87;0.90;;;7.10;99.90;;;;;;5089917;28;20186;-49
2021/10/23 03:44:37;;;;;;;9.63;1.20;;;7.10;99.90;;;;;;5102834;28;20221;-48
2021/10/23 03:47:04;;;;;;;10.70;1.90;;;7.00;99.90;;;;;;5074948;28;20206;-46
2021/10/23 03:49:31;;;;;;;7.90;1.30;;;7.00;99.90;;;;;;5076869;28;20202;-44
2021/10/23 03:51:58;;;;;;;8.07;1.53;;;6.90;99.90;;;;;;5098538;28;20201;-47
2021/10/23 03:54:26;;;;;;;5.83;1.17;;;6.90;99.90;;;;;;5087827;28;20269;-46
2021/10/23 03:56:53;;;;;;;5.63;1.10;;;6.90;99.90;;;;;;5080199;28;20194;-46
2021/10/23 03:59:19;;;;;;;5.07;1.20;;;6.90;99.90;;;;;;5081896;28;20200;-44
2021/10/23 04:01:47;;;;;;;8.13;1.30;;;6.80;99.90;;;;;;5058162;28;24265;-44
2021/10/23 04:04:13;;;;;;;10.60;2.03;;;6.80;99.90;;;;;;5087262;28;20217;-44
2021/10/23 04:06:40;;;;;;;9.27;1.73;;;6.80;99.90;;;;;;5068109;28;20298;-47
2021/10/23 04:09:07;;;;;;;7.17;1.33;;;6.80;99.90;;;;;;5086662;28;20214;-48
2021/10/23 04:11:35;;;;;;;11.03;2.13;;;6.70;99.90;;;;;;5068040;28;20194;-47
2021/10/23 04:14:02;;;;;;;5.43;1.67;;;6.70;99.90;;;;;;5095339;28;20217;-48
2021/10/23 04:16:29;;;;;;;5.20;1.57;;;6.70;99.90;;;;;;5103748;28;20208;-47
2021/10/23 04:18:56;;;;;;;6.70;1.40;;;6.70;99.90;;;;;;5076022;28;20200;-43
2021/10/23 04:21:23;;;;;;;10.83;1.53;;;6.70;99.90;;;;;;5079991;28;20891;-45
2021/10/23 04:23:50;;;;;;;6.70;1.23;;;6.70;99.90;;;;;;5086948;28;20720;-46
2021/10/23 04:26:16;;;;;;;6.53;1.60;;;6.70;99.90;;;;;;5083475;28;20200;-47
2021/10/23 04:28:44;;;;;;;9.87;1.20;;;6.70;99.90;;;;;;5079850;28;20210;-45
2021/10/23 04:31:11;;;;;;;5.80;1.07;;;6.70;99.90;;;;;;5079300;28;20194;-48
2021/10/23 04:33:38;;;;;;;6.20;1.27;;;6.70;99.90;;;;;;5081346;28;20228;-45
2021/10/23 04:36:05;;;;;;;5.50;1.23;;;6.80;99.90;;;;;;5079472;28;20209;-46
2021/10/23 04:38:31;;;;;;;10.33;1.40;;;6.80;99.90;;;;;;5101273;28;20201;-46
2021/10/23 04:40:58;;;;;;;5.70;1.10;;;6.80;99.90;;;;;;5095010;27;20201;-46
2021/10/23 04:43:24;;;;;;;7.53;1.33;;;6.80;99.90;;;;;;5098710;28;20759;-44
2021/10/23 04:45:52;;;;;;;8.57;1.40;;;6.80;99.90;;;;;;5100627;28;20565;-45
2021/10/23 04:48:19;;;;;;;8.40;1.43;;;6.80;99.90;;;;;;5086018;28;20225;-45
2021/10/23 04:50:46;;;;;;;8.57;1.47;;;6.80;99.90;;;;;;5087261;28;20202;-47
2021/10/23 04:53:12;;;;;;;4.20;1.00;;;6.80;99.90;;;;;;5076855;28;20221;-46
2021/10/23 04:55:39;;;;;;;8.73;1.43;;;6.80;99.90;;;;;;5086397;28;20685;-46
2021/10/23 04:58:06;;;;;;;6.63;1.30;;;6.70;99.90;;;;;;5083198;28;20208;-45
2021/10/23 05:00:32;;;;;;;7.50;1.20;;;6.70;99.90;;;;;;5086144;28;20213;-46
2021/10/23 05:03:00;;;;;;;10.37;1.33;;;6.70;99.90;;;;;;5084081;28;20225;-48
2021/10/23 05:05:27;;;;;;;6.70;1.57;;;6.70;99.90;;;;;;5066938;28;20220;-45
2021/10/23 05:07:53;;;;;;;8.30;1.53;;;6.60;99.90;;;;;;5081252;28;20233;-48
2021/10/23 05:10:20;;;;;;;6.37;1.27;;;6.60;99.90;;;;;;5086834;28;20202;-49
2021/10/23 05:12:47;;;;;;;5.73;1.07;;;6.70;99.90;;;;;;5088790;28;20231;-47
2021/10/23 05:15:13;;;;;;;4.73;1.20;;;6.60;99.90;;;;;;5101792;28;20209;-45
2021/10/23 05:17:40;;;;;;;8.50;1.27;;;6.60;99.90;;;;;;5105647;28;20217;-44
2021/10/23 05:20:09;;;;;;;5.93;1.43;;;6.60;99.90;;;;;;5088330;28;20201;-47
2021/10/23 05:22:36;;;;;;;5.33;1.63;;;6.60;99.90;;;;;;5075772;28;20698;-44
2021/10/23 05:25:03;;;;;;;4.33;1.37;;;6.60;99.90;;;;;;5089010;28;20202;-46
2021/10/23 05:27:30;;;;;;;7.57;1.30;;;6.60;99.90;;;;;;5084814;28;20205;-44
2021/10/23 05:29:57;;;;;;;4.23;0.97;;;6.60;99.90;;;;;;5084195;28;20206;-45
2021/10/23 05:32:24;;;;;;;4.27;1.10;;;6.60;99.90;;;;;;5083457;28;20197;-45
2021/10/23 05:34:50;;;;;;;9.10;1.20;;;6.60;99.90;;;;;;5085287;28;20198;-46
2021/10/23 05:37:19;;;;;;;7.00;1.63;;;6.60;99.90;;;;;;5069811;28;20198;-48
2021/10/23 05:39:46;;;;;;;4.77;1.17;;;6.60;99.90;;;;;;5076256;28;20206;-47
2021/10/23 05:42:13;;;;;;;8.47;1.97;;;6.50;99.90;;;;;;5095312;28;20198;-45
2021/10/23 05:44:40;;;;;;;7.80;1.20;;;6.50;99.90;;;;;;5101181;28;20205;-46
2021/10/23 05:47:07;;;;;;;5.37;1.70;;;6.50;99.90;;;;;;5101525;28;20198;-46
2021/10/23 05:49:34;;;;;;;8.33;1.40;;;6.50;99.90;;;;;;5105043;28;20216;-47
2021/10/23 05:52:01;;;;;;;3.87;1.10;;;6.40;99.90;;;;;;5080884;28;20564;-46
2021/10/23 05:54:36;;;;;;;5.70;1.30;;;6.40;99.90;;;;;;5079609;28;20280;-47
2021/10/23 05:57:04;;;;;;;5.47;1.10;;;6.40;99.90;;;;;;5089601;28;20197;-46
2021/10/23 05:59:31;;;;;;;8.33;1.50;;;6.40;99.90;;;;;;5104433;28;20202;-49
2021/10/23 06:02:08;;;;;;;11.27;1.70;;;6.40;99.90;;;;;;5102614;28;20206;-46
2021/10/23 06:04:36;;;;;;;5.93;1.23;;;6.40;99.90;;;;;;5080991;28;20225;-49
2021/10/23 06:07:04;;;;;;;6.20;1.47;;;6.30;99.90;;;;;;5063645;28;20267;-45
2021/10/23 06:09:33;;;;;;;4.03;1.40;;;6.40;99.90;;;;;;5089312;28;20225;-44
2021/10/23 06:12:01;;;;;;;3.10;1.17;;;6.40;99.90;;;;;;5067059;28;20457;-47
2021/10/23 06:14:28;;;;;;;7.03;1.27;;;6.40;99.90;;;;;;5078502;28;20221;-47
2021/10/23 06:16:55;;;;;;;8.17;1.30;;;6.40;99.90;;;;;;5085481;28;20573;-46
2021/10/23 06:19:22;;;;;;;7.87;1.70;;;6.30;99.90;;;;;;5071012;28;20197;-44
2021/10/23 06:21:48;;;;;;;6.53;1.63;;;6.40;99.90;;;;;;5083551;28;20217;-48
2021/10/23 06:24:15;;;;;;;8.77;1.47;;;6.30;99.90;;;;;;5067990;28;20951;-48
2021/10/23 06:26:43;;;;;;;6.07;1.30;;;6.40;99.90;;;;;;5077502;28;20229;-46
2021/10/23 06:29:09;;;;;;;6.43;1.20;;;6.40;99.90;;;;;;5074598;28;20214;-46
2021/10/23 06:31:36;;;;;;;4.97;1.40;;;6.30;99.90;;;;;;5085864;28;20674;-45
2021/10/23 06:34:03;;;;;;;8.07;1.50;;;6.40;99.90;;;;;;5081294;28;20214;-45
2021/10/23 06:36:29;;;;;;;7.00;1.50;;;6.30;99.90;;;;;;5097661;28;20307;-50
2021/10/23 06:38:56;;;;;;;3.33;0.93;;;6.40;99.90;;;;;;5063518;28;20202;-47
2021/10/23 06:41:22;;;;;;;4.97;1.00;;;6.40;99.90;;;;;;5077599;28;20895;-47
2021/10/23 06:43:50;;;;;;;4.97;1.27;;;6.40;99.90;;;;;;5087531;28;20232;-47
2021/10/23 06:46:18;;;;;;;4.20;1.03;;;6.40;99.90;;;;;;5068420;28;20202;-45
2021/10/23 06:48:44;;;;;;;7.97;1.57;;;6.50;99.90;;;;;;5083746;28;20214;-47
2021/10/23 06:51:11;;;;;;;5.43;1.20;;;6.60;99.90;;;;;;5089679;28;20202;-46
2021/10/23 06:53:38;;;;;;;7.20;1.00;;;6.60;99.90;;;;;;5083389;28;20272;-45
2021/10/23 06:56:04;;;;;;;4.83;1.20;;;6.70;99.90;;;;;;5072238;28;20204;-46
2021/10/23 06:58:31;;;;;;;9.10;1.17;;;6.70;99.90;;;;;;5082334;28;20198;-45
2021/10/23 07:00:59;;;;;;;5.27;1.27;;;6.80;99.90;;;;;;5090118;28;20205;-44
2021/10/23 07:03:26;;;;;;;3.17;0.90;;;6.90;99.90;;;;;;5079863;28;20218;-47
2021/10/23 07:05:53;;;;;;;9.60;1.10;;;6.90;99.90;;;;;;5082142;28;20553;-45
2021/10/23 07:08:19;;;;;;;7.17;1.17;;;6.90;99.90;;;;;;5082750;28;20292;-48
2021/10/23 07:10:46;;;;;;;3.37;1.10;;;7.00;99.90;;;;;;5061319;28;20221;-48
2021/10/23 07:13:13;;;;;;;6.03;1.63;;;7.00;99.90;;;;;;5078293;28;20218;-46
2021/10/23 07:15:39;;;;;;;4.93;1.33;;;7.10;99.90;;;;;;5074176;28;20205;-45
2021/10/23 07:18:07;;;;;;;5.80;1.30;;;7.20;99.90;;;;;;5073303;28;20259;-44
2021/10/23 07:20:36;;;;;;;7.13;1.60;;;7.20;99.90;;;;;;5082787;28;20202;-46
2021/10/23 07:23:03;;;;;;;4.70;1.50;;;7.30;99.90;;;;;;5076796;28;20296;-46
2021/10/23 07:25:30;;;;;;;5.63;1.20;;;7.30;99.90;;;;;;5065968;28;20279;-47
2021/10/23 07:27:56;;;;;;;7.50;1.60;;;7.30;99.90;;;;;;5077824;28;20198;-48
2021/10/23 07:30:23;;;;;;;5.30;1.30;;;7.40;99.90;;;;;;5076209;28;20212;-44
2021/10/23 07:32:50;;;;;;;5.83;1.40;;;7.40;99.90;;;;;;5073175;28;20281;-45
2021/10/23 07:35:18;;;;;;;5.93;1.97;;;7.50;99.90;;;;;;5080774;28;20198;-45
2021/10/23 07:37:44;;;;;;;13.97;1.50;;;7.50;99.90;;;;;;5078879;28;20198;-46
2021/10/23 07:40:13;;;;;;;10.93;1.40;;;7.50;99.90;;;;;;5066825;28;20198;-45
2021/10/23 07:42:40;;;;;;;8.10;1.60;;;7.50;99.90;;;;;;5080201;28;20228;-45
2021/10/23 07:45:09;;;;;;;10.60;1.60;;;7.50;99.90;;;;;;5080954;28;20202;-45
2021/10/23 07:47:36;;;;;;;7.67;1.90;;;7.50;99.90;;;;;;5081961;28;20654;-47
2021/10/23 07:50:03;;;;;;;5.10;1.30;;;7.50;99.90;;;;;;5077055;28;20216;-46
2021/10/23 07:52:31;;;;;;;4.87;1.30;;;7.60;99.90;;;;;;5086453;28;20209;-44
2021/10/23 07:54:58;;;;;;;7.83;1.40;;;7.70;99.90;;;;;;5085158;28;20990;-43
2021/10/23 07:57:25;;;;;;;5.70;1.40;;;7.70;99.90;;;;;;5080831;28;20214;-43
2021/10/23 07:59:51;;;;;;;8.63;1.80;;;7.80;99.90;;;;;;5063194;28;20283;-46
2021/10/23 08:02:18;;;;;;;9.83;1.70;;;7.80;99.90;;;;;;5089767;28;20210;-44
2021/10/23 08:04:45;;;;;;;4.43;1.10;;;7.90;99.90;;;;;;5080075;28;20271;-45
2021/10/23 08:07:12;;;;;;;8.97;1.50;;;7.90;99.90;;;;;;5095430;28;20599;-46
2021/10/23 08:09:40;;;;;;;5.50;1.10;;;8.00;99.90;;;;;;5098700;28;20217;-46
2021/10/23 08:12:08;;;;;;;6.57;1.67;;;8.10;99.90;;;;;;5064850;28;20209;-45
2021/10/23 08:14:36;;;;;;;7.07;1.40;;;8.10;99.90;;;;;;5085935;28;20605;-47
2021/10/23 08:17:03;;;;;;;7.97;1.50;;;8.20;99.90;;;;;;5084341;28;20182;-44
2021/10/23 08:19:29;;;;;;;6.53;1.27;;;8.20;99.90;;;;;;5086399;28;20186;-44
2021/10/23 08:21:56;;;;;;;3.97;1.00;;;8.20;99.90;;;;;;5086900;28;20272;-48
2021/10/23 08:24:23;;;;;;;7.07;2.03;;;8.30;99.90;;;;;;5101058;27;20233;-46
2021/10/23 08:26:51;;;;;;;9.37;1.50;;;8.40;99.90;;;;;;5063647;28;20202;-48
2021/10/23 08:29:18;;;;;;;6.70;1.57;;;8.50;99.90;;;;;;5080882;28;20206;-46
2021/10/23 08:31:46;;;;;;;4.60;1.17;;;8.60;99.90;;;;;;5078257;28;20205;-45
2021/10/23 08:34:13;;;;;;;7.70;1.20;;;8.70;99.90;;;;;;5086449;28;20218;-45
2021/10/23 08:36:39;;;;;;;5.73;1.50;;;8.70;99.90;;;;;;5083814;28;20690;-44
2021/10/23 08:39:07;;;;;;;5.60;1.07;;;8.80;99.90;;;;;;5093251;28;20193;-45
2021/10/23 08:41:34;;;;;;;7.10;1.07;;;8.80;99.90;;;;;;5092572;28;20216;-48
2021/10/23 08:44:04;;;;;;;5.97;1.37;;;8.80;99.90;;;;;;5066945;28;20224;-45
2021/10/23 08:46:36;;;;;;;4.23;1.47;;;8.90;99.90;;;;;;5081407;28;20282;-46
2021/10/23 08:49:04;;;;;;;4.80;1.00;;;8.90;99.90;;;;;;5090970;28;20217;-46
2021/10/23 08:51:32;;;;;;;5.00;0.93;;;8.90;99.90;;;;;;5077117;28;20190;-46
2021/10/23 08:53:59;;;;;;;5.27;1.27;;;8.90;99.90;;;;;;5087835;28;20226;-47
2021/10/23 08:56:26;;;;;;;6.37;1.40;;;9.00;99.90;;;;;;5087780;28;20194;-45
2021/10/23 08:58:53;;;;;;;6.60;1.40;;;8.90;99.90;;;;;;5073201;28;20206;-48
2021/10/23 09:01:21;;;;;;;8.67;1.20;;;8.90;99.90;;;;;;5076660;28;20773;-44
2021/10/23 09:03:48;;;;;;;5.67;1.07;;;8.90;99.90;;;;;;5079756;28;20489;-47
2021/10/23 09:06:16;;;;;;;4.27;0.67;;;8.90;99.90;;;;;;5086022;28;20202;-49
2021/10/23 09:09:03;;;;;;;7.90;1.17;;;8.90;99.90;;;;;;5087580;28;20194;-46
2021/10/23 09:11:32;;;;;;;5.27;1.40;;;8.90;99.90;;;;;;5086619;28;20222;-47
2021/10/23 09:14:20;;;;;;;7.27;1.27;;;8.90;99.90;;;;;;5075757;28;20222;-45
2021/10/23 09:16:48;;;;;;;6.63;1.17;;;9.00;99.90;;;;;;5070548;28;20210;-49
2021/10/23 09:19:15;;;;;;;3.70;1.10;;;9.10;99.90;;;;;;5089394;28;20198;-46
2021/10/23 09:21:42;;;;;;;4.43;1.00;;;9.20;99.90;;;;;;5083002;27;20209;-48
2021/10/23 09:24:21;;;;;;;3.10;1.17;;;9.30;99.90;;;;;;5074077;28;20222;-49
2021/10/23 09:26:47;;;;;;;7.23;1.30;;;9.40;99.90;;;;;;5084422;28;20200;-48
2021/10/23 09:29:19;;;;;;;6.70;1.00;;;9.40;99.90;;;;;;5089222;28;20485;-48
2021/10/23 09:31:47;;;;;;;6.07;0.93;;;9.40;99.90;;;;;;5078002;28;20247;-50
2021/10/23 09:34:16;;;;;;;6.93;1.63;;;9.50;99.90;;;;;;5086403;28;20340;-46
2021/10/23 09:36:47;;;;;;;6.10;1.23;;;9.50;99.90;;;;;;5083561;28;20198;-44
2021/10/23 09:39:23;;;;;;;7.17;1.40;;;9.70;99.90;;;;;;5076023;28;20198;-48
2021/10/23 09:42:04;;;;;;;5.30;1.40;;;9.90;99.90;;;;;;5083502;28;20189;-44
2021/10/23 09:44:31;;;;;;;2.67;0.87;;;10.20;99.90;;;;;;5079304;28;20920;-48
2021/10/23 09:46:59;;;;;;;6.50;1.20;;;10.20;99.90;;;;;;5079335;28;20201;-44
2021/10/23 09:49:27;;;;;;;7.37;1.30;;;10.20;99.90;;;;;;5081359;28;20690;-47
2021/10/23 09:52:03;;;;;;;11.93;1.37;;;10.20;99.90;;;;;;5088603;28;20228;-44
2021/10/23 09:54:30;;;;;;;6.03;1.27;;;10.20;99.90;;;;;;5083137;28;20213;-49
2021/10/23 09:56:57;;;;;;;6.17;1.93;;;10.20;99.90;;;;;;5090664;28;20205;-45
2021/10/23 09:59:28;;;;;;;4.10;1.20;;;10.30;99.90;;;;;;5078119;28;20201;-46
2021/10/23 10:02:00;;;;;;;4.27;1.07;;;10.30;99.90;;;;;;5076994;28;20234;-46
2021/10/23 10:04:30;;;;;;;4.50;1.40;;;10.30;99.90;;;;;;5087827;28;20727;-44
2021/10/23 10:06:58;;;;;;;5.23;1.57;;;10.50;99.90;;;;;;5090672;28;20197;-47
2021/10/23 10:09:26;;;;;;;5.93;1.40;;;10.50;99.90;;;;;;5070826;28;20228;-45
2021/10/23 10:11:54;;;;;;;3.37;1.30;;;10.50;99.90;;;;;;5082874;28;20209;-46
2021/10/23 10:14:24;;;;;;;5.40;1.50;;;10.50;99.90;;;;;;5082151;28;20224;-45
2021/10/23 10:16:54;;;;;;;7.43;1.40;;;10.60;99.90;;;;;;5066869;28;20216;-48
2021/10/23 10:19:23;;;;;;;4.73;1.27;;;10.60;99.90;;;;;;5082350;28;20198;-47
2021/10/23 10:21:51;;;;;;;7.73;1.70;;;10.70;99.90;;;;;;5092849;28;20200;-49
2021/10/23 10:24:19;;;;;;;6.90;1.80;;;10.80;99.90;;;;;;5088724;28;20230;-46
2021/10/23 10:26:58;;;;;;;4.30;1.10;;;10.90;99.90;;;;;;5091775;28;21042;-45
2021/10/23 10:29:34;;;;;;;7.77;1.47;;;10.90;99.90;;;;;;5085051;28;20301;-45
2021/10/23 10:32:14;;;;;;;6.80;1.10;;;10.90;99.90;;;;;;5062657;28;20201;-48
2021/10/23 10:35:24;;;;;;;3.70;0.93;;;10.90;99.90;;;;;;5079366;28;20205;-47
2021/10/23 10:38:03;;;;;;;2.70;0.80;;;10.90;99.90;;;;;;5079556;28;20216;-46
2021/10/23 10:43:33;;;;;;;8.03;1.27;;;11.00;99.90;;;;;;5077603;28;20212;-44
2021/10/23 10:46:02;;;;;;;4.17;1.07;;;11.10;99.90;;;;;;5076561;28;20218;-46
2021/10/23 10:48:44;;;;;;;6.20;1.50;;;11.10;99.90;;;;;;5066030;28;20663;-45
2021/10/23 10:51:21;;;;;;;6.17;1.27;;;11.20;99.90;;;;;;5078937;28;20248;-45
2021/10/23 10:54:07;;;;;;;3.47;1.20;;;11.20;99.90;;;;;;5082316;28;20248;-50
2021/10/23 10:56:49;;;;;;;5.53;1.00;;;;;;;;;;5078246;28;20185;-44
2021/10/23 10:59:54;;;;;;;6.30;1.27;;;11.30;99.90;;;;;;5085198;28;20219;-46
2021/10/23 11:02:33;;;;;;;4.40;0.90;;;11.30;99.90;;;;;;5079811;28;20218;-46
2021/10/23 11:05:30;;;;;;;5.27;1.43;;;11.30;99.90;;;;;;5076351;28;20202;-45
2021/10/23 11:08:16;;;;;;;4.07;0.90;;;11.30;99.90;;;;;;5053654;28;20217;-52
2021/10/23 11:11:00;;;;;;;5.93;1.10;;;11.20;99.90;;;;;;5075015;28;20206;-50
2021/10/23 11:13:28;;;;;;;4.37;1.70;;;11.20;99.90;;;;;;5073748;28;20705;-48
2021/10/23 11:15:55;;;;;;;6.73;1.50;;;11.20;99.90;;;;;;5090771;28;20783;-48
2021/10/23 11:18:21;;;;;;;4.97;1.07;;;11.20;99.90;;;;;;5068972;28;20279;-51
2021/10/23 11:20:48;;;;;;;6.27;1.17;;;11.20;99.90;;;;;;5072317;28;20197;-47
2021/10/23 11:23:22;;;;;;;7.87;1.27;;;11.20;99.90;;;;;;5084722;28;20214;-50
2021/10/23 11:25:50;;;;;;;12.83;1.57;;;11.20;99.90;;;;;;5081337;28;20185;-47
2021/10/23 11:28:17;;;;;;;6.87;1.40;;;11.20;99.90;;;;;;5080333;28;20210;-46
2021/10/23 11:30:44;;;;;;;9.20;2.20;;;11.20;99.90;;;;;;5086272;28;20966;-46
2021/10/23 11:33:16;;;;;;;4.60;1.20;;;11.30;99.90;;;;;;5082599;28;20210;-46
2021/10/23 11:35:47;;;;;;;4.97;1.20;;;11.30;99.90;;;;;;5063156;28;20252;-48
2021/10/23 11:38:20;;;;;;;5.93;1.40;;;11.40;99.90;;;;;;5082493;28;20344;-49
2021/10/23 11:40:53;;;;;;;8.30;1.47;;;11.40;99.90;;;;;;5079597;28;20255;-48
2021/10/23 11:43:21;;;;;;;4.00;0.90;;;11.50;99.90;;;;;;5072286;28;20582;-50
2021/10/23 11:45:48;;;;;;;6.37;0.90;;;11.50;99.90;;;;;;5076237;28;20251;-47
2021/10/23 11:48:17;;;;;;;6.27;1.20;;;11.60;99.90;;;;;;5081376;28;20651;-47
2021/10/23 11:50:46;;;;;;;4.87;0.90;;;11.60;99.90;;;;;;5062293;28;20202;-47
2021/10/23 11:53:16;;;;;;;4.13;0.80;;;11.60;99.90;;;;;;5085564;28;20763;-48
2021/10/23 11:55:45;;;;;;;3.57;0.90;;;11.70;99.90;;;;;;5084350;28;20204;-48
2021/10/23 11:58:15;;;;;;;4.83;1.33;;;11.70;99.90;;;;;;5070119;28;20195;-51
2021/10/23 12:00:44;;;;;;;4.97;1.13;;;11.70;99.90;;;;;;5074930;28;20198;-47
2021/10/23 12:03:13;;;;;;;5.30;0.80;;;11.70;99.90;;;;;;5087948;28;20217;-46
2021/10/23 12:05:46;;;;;;;2.70;1.00;;;11.70;99.90;;;;;;5062496;28;21996;-44
2021/10/23 12:08:24;;;;;;;5.33;1.00;;;11.70;99.90;;;;;;5071461;28;20206;-45
2021/10/23 12:11:18;;;;;;;4.93;0.93;;;11.80;99.90;;;;;;5074409;28;20309;-45
2021/10/23 12:14:05;;;;;;;5.47;1.33;;;11.80;99.90;;;;;;5073660;28;20296;-47
2021/10/23 12:16:40;;;;;;;4.47;1.13;;;11.90;99.90;;;;;;5077260;28;20237;-49
2021/10/23 12:19:13;;;;;;;6.07;1.10;;;12.00;99.90;;;;;;5071705;28;20201;-46
2021/10/23 12:21:42;;;;;;;2.50;0.77;;;12.00;99.90;;;;;;5066877;28;20208;-44
2021/10/23 12:24:25;;;;;;;4.27;0.53;;;12.00;99.90;;;;;;5075606;28;20224;-45
2021/10/23 12:27:13;;;;;;;4.93;1.10;;;11.90;99.90;;;;;;5072488;28;20194;-48
2021/10/23 12:29:44;;;;;;;4.77;1.33;;;11.80;99.90;;;;;;5084461;28;20202;-46
2021/10/23 12:32:12;;;;;;;4.37;1.00;;;11.80;99.90;;;;;;5101175;28;20193;-46
2021/10/23 12:35:00;;;;;;;6.80;1.37;;;11.80;99.90;;;;;;5094898;28;20226;-48
2021/10/23 12:37:43;;;;;;;3.17;0.97;;;11.80;99.90;;;;;;5062392;28;20213;-47
2021/10/23 12:40:14;;;;;;;3.97;0.70;;;11.90;99.90;;;;;;5072997;28;20198;-48
2021/10/23 12:42:42;;;;;;;5.53;0.93;;;11.90;99.90;;;;;;5092970;28;20575;-46
2021/10/23 12:45:20;;;;;;;7.17;1.33;;;11.90;99.90;;;;;;5097363;28;20197;-45
2021/10/23 12:47:47;;;;;;;4.47;0.80;;;11.90;99.90;;;;;;5090563;28;20205;-47
2021/10/23 12:50:14;;;;;;;4.83;0.87;;;12.00;99.90;;;;;;5105565;28;20220;-47
2021/10/23 12:52:42;;;;;;;3.23;0.77;;;12.00;99.90;;;;;;5071798;27;20235;-45
2021/10/23 12:55:10;;;;;;;6.47;1.03;;;12.00;99.90;;;;;;5076784;28;20213;-50
2021/10/23 12:57:37;;;;;;;8.20;1.40;;;12.00;99.90;;;;;;5078524;28;20263;-48
2021/10/23 13:00:05;;;;;;;3.77;1.50;;;12.00;99.90;;;;;;5068412;28;20194;-47
2021/10/23 13:02:33;;;;;;;4.60;0.93;;;12.00;99.90;;;;;;5078456;28;20741;-44
2021/10/23 13:05:00;;;;;;;5.43;1.13;;;12.00;99.90;;;;;;5081819;28;20198;-45
2021/10/23 13:07:27;;;;;;;9.90;1.50;;;12.00;99.90;;;;;;5073822;28;20679;-47